Princeton, IL (61356)

1:30 AM CDT on September 29, 2016 (GMT -0500)
APRSWXNET | | Change Station

Elev 699 ft 41.36 °N, 89.47 °W | Updated 94 days ago

Clear
Clear
54 °F
Feels Like 54 °F
N
14
Wind Variable Wind from North
Gusts 23 mph

Today
High -- | Low -- °F
--% Chance of Precip.
Yesterday
High -- | Low -- °F
Precip. -- in
Pressure 30.11 in
Visibility 10.0 miles
Clouds Mostly Cloudy 8000 ft
Dew Point 49 °F
Humidity 85%
Rainfall in
Snow Depth Not available.
6:52 AM 6:41 PM
Waning Crescent, 3% visible
METAR KVYS 290615Z AUTO 35013G17KT 10SM BKN080 14/11 A3011 RMK AO2 T01420108
Pressure 30.11 in
Visibility 10.0 miles
Clouds Mostly Cloudy 8000 ft
Dew Point 49 °F
Humidity 85%
Rainfall in
Snow Depth Not available.
6:52 AM 6:41 PM
Waning Crescent, 3% visible
METAR KVYS 290615Z AUTO 35013G17KT 10SM BKN080 14/11 A3011 RMK AO2 T01420108

10-Day Weather Forecast

Almanac

Astronomy

Sep. 29, 2016 Rise Set
Actual Time
Civil Twilight
Nautical Twilight
Astronomical Twilight
Moon
Length of Visible Light
Length of Day
Tomorrow will be .
, % of the Moon is Illuminated

Today's Extremes

State Highs State Lows

Community

WunderPhotos

Upload Photos

1,942,446 photos uploaded!

WunderBlog® & News

Nearby

Air Quality

  Air Quality AQ Index Pollutant
Not available.

Snow Depth

Station Depth Elevation

Earthquake Activity

City Distance Mag. Time & Date
Minimum magnitude displayed is 2.5.

Coastal Water Temperatures

Place Temperature

Stations

Nearby Weather Stations

Station Location Temp. Windchill Dew Point Humidity Wind Precip. Elev Updated Type
                   

Watches & Warnings

There are currently no watches in effect.